x

Ilm2 - 5 Miles Se Of Wrightsville Beach, Nc (41038) Weather Station

6:08pm - Tue 28th Jun 2016 All times are EDT. -4 hours from GMT.

  • Wind
    2mph, 4mph gusts
  • Sea Temp 81°f
  • Air Temp 80°f
  • Sea Pressure 1013.7mb
  • Ilm2 - 5 Miles Se Of Wrightsville Beach, Nc
  • Ilm2 - 5 Miles Se Of Wrightsville Beach, Nc

More Historic Weather Station data

Upgrade to MSW Pro to gain access to the past 30 days of data for over 8000 Wavebouys and Weather Stations around the globe.

Join Pro

Comparision Forecast

View Surf forecast
   
Tue 06/28 6:08pm 2 4 mph 1013.7mb 81f 80f
5:08pm 7 9 mph 1014.1mb 81f 80f
4:08pm 9 11 mph 1014.1mb 81f 80f
2:08pm 9 13 mph 1014.9mb 81f 80f
1:08pm 9 13 mph 1015.6mb 81f 80f
12:08pm 11 13 mph 1016mb 81f 79f
11:08am 9 11 mph 1016.4mb 81f 79f
10:08am 7 9 mph 1016.4mb 81f 80f
9:08am 7 9 mph 1016.6mb 80f 80f
8:08am 4 7 mph 1016.5mb 80f 80f
7:08am 2 4 mph 1016.2mb 80f 80f
6:08am 7 9 mph 1016.1mb 80f 79f
5:08am 9 11 mph 1015.9mb 80f 79f
4:08am 9 13 mph 1015.7mb 80f 79f
3:08am 11 16 mph 1016mb 80f 80f
2:08am 11 16 mph 1016mb 80f 80f
1:08am 11 16 mph 1016.5mb 81f 80f
12:08am 11 13 mph 1017.1mb 81f 80f
Mon 06/27 11:08pm 11 13 mph 1017.6mb 81f 80f
10:08pm 9 11 mph 1017.6mb 81f 80f
9:08pm 7 11 mph 1017.4mb 81f 80f
8:08pm 9 13 mph 1017.1mb 81f 80f
6:08pm 11 16 mph 1016.7mb 82f 81f
5:08pm 11 16 mph 1017.2mb 82f 81f
4:08pm 11 16 mph 1017.6mb 82f 81f
3:08pm 9 11 mph 1018.5mb 82f 81f
2:08pm 4 9 mph 1018.9mb 82f 81f
1:08pm 2 7 mph 1019.6mb 82f 80f
12:08pm 4 7 mph 1019.9mb 81f 80f
11:08am 2 7 mph 1020mb 81f 79f
10:08am 7 11 mph 1019.8mb 80f 78f
9:08am 9 16 mph 1020.4mb 80f 79f
8:08am 9 11 mph 1020.3mb 80f 78f
7:08am 11 16 mph 1020.1mb 80f 78f
6:08am 11 16 mph 1019.9mb 80f 77f
5:08am 13 20 mph 1019.7mb 80f 78f
4:08am 16 22 mph 1019mb 80f 78f
3:08am 13 18 mph 1019.2mb 80f 78f
2:08am 13 18 mph 1019.7mb 80f 78f
1:08am 9 13 mph 1020.1mb 80f 79f
12:08am 11 16 mph 1019.6mb 80f 79f
Sun 06/26 11:08pm 13 18 mph 1019.4mb 80f 79f
10:08pm 16 20 mph 1019.9mb 80f 79f
9:08pm 13 20 mph 1019.8mb 80f 79f
8:08pm 16 20 mph 1019.4mb 80f 79f
7:08pm 16 22 mph 1019.3mb 81f 80f
6:08pm 13 18 mph 1020mb 81f 80f
5:08pm 11 16 mph 1020.6mb 81f 80f
4:08pm 11 16 mph 1020.8mb 81f 79f
3:08pm 11 16 mph 1021.2mb 80f 78f
2:08pm 13 18 mph 1021.6mb 80f 78f
1:08pm 11 16 mph 1021.6mb 80f 77f
12:08pm 9 13 mph 1022mb 80f 76f
11:08am 9 16 mph 1022.4mb 80f 75f
10:08am 13 18 mph 1021.8mb 80f 74f
9:08am 16 22 mph 1022mb 80f 73f
8:08am 16 20 mph 1021.4mb 80f 73f
7:08am 13 16 mph 1021.6mb 80f 74f
6:08am 13 18 mph 1021.2mb 80f 74f
5:08am 16 20 mph 1020.7mb 80f 75f
4:08am 16 22 mph 1019.9mb 80f 75f
3:08am 18 22 mph 1019.6mb 80f 77f
2:08am 18 25 mph 1020.3mb 80f 77f
1:08am 18 22 mph 1020.7mb 80f 78f
12:08am 18 25 mph 1020.5mb 80f 78f
Sat 06/25 11:08pm 16 20 mph 1020.4mb 80f 78f
10:08pm 18 22 mph 1020.4mb 80f 79f
9:08pm 20 27 mph 1019.7mb 80f 79f
8:08pm 20 29 mph 1019.9mb 80f 79f
7:08pm 18 22 mph 1019.1mb 80f 80f
6:08pm 16 20 mph 1018.6mb 80f 80f
5:08pm 11 16 mph 1018.4mb 80f 80f
4:08pm 11 16 mph 1018.5mb 81f 80f
3:08pm 7 11 mph 1018.2mb 81f 80f
2:08pm 7 11 mph 1018.5mb 81f 81f
1:08pm 4 9 mph 1018.8mb 81f 80f
12:08pm 2 4 mph 1018.9mb 80f 80f
11:08am 2 4 mph 1018.7mb 80f 80f
10:08am  -  4 mph 1018.5mb 80f 80f
9:08am 7 11 mph 1018.3mb 80f 78f
8:08am 7 9 mph 1018.2mb 80f 78f
7:08am 2 4 mph 1017.5mb 80f 78f
6:08am 7 9 mph 1017mb 80f 77f
5:08am 2 4 mph 1016.7mb 80f 77f
4:08am 4 7 mph 1016.5mb 80f 77f
3:08am 7 11 mph 1016.1mb 80f 78f
2:08am 9 11 mph 1016.5mb 80f 78f
1:08am 9 13 mph 1016.5mb 80f 77f
12:08am 11 13 mph 1016.4mb 80f 78f
Fri 06/24 11:08pm 9 13 mph 1016.6mb 80f 78f